FMNM/MJN METAR and TAF weather

Enter ICAO airport designator
Station Type Date Time Source
FMNM METAR 2022/12/04 12:00 UTC NOAA

FMNM 041200Z 35012KT 320V020 9999 FEW020CB 30/24 Q1009 NOSIG


Station Type Date Time Source
FMNM Decoded METAR 2022/12/04 12:00 UTC NOAA

Majunga, Madagascar (FMNM) 15-40S 046-21E 18M
Dec 04, 2022 - 07:00 AM EST / 2022.12.04 1200 UTC
Wind: from the N (350 degrees) at 14 MPH (12 KT) (direction variable):0
Visibility: greater than 7 mile(s):0
Sky conditions: mostly clear
Weather: Cumulonimbus clouds observed
Temperature: 86 F (30 C)
Heat index: 95.0 F (35.0 C):1
Dew Point: 75 F (24 C)
Relative Humidity: 70%
Pressure (altimeter): 29.80 in. Hg (1009 hPa)
ob: FMNM 041200Z 35012KT 320V020 9999 FEW020CB 30/24 Q1009 NOSIG
cycle: 12

Station Type Date Time Source
FMNM TAF 2022/12/04 12:02 UTC NOAA

TAF FMNM 041100Z 0412/0512 32010KT 9999 SCT020CB SCT040 PROB30
TEMPO 0412/0414 4000 TSRA
BECMG 0418/0420 10005KT PROB40
TEMPO 0420/0504 4000 TSRA
BECMG 0508/0510 34012KT

Example: see airport list